createdAt,value
2023-03-08T00:00:59.602Z,2.20
2023-03-08T00:03:02.718Z,2.10
2023-03-08T00:05:05.687Z,2.20
2023-03-08T00:07:07.383Z,2.20
2023-03-08T00:09:10.362Z,2.20
2023-03-08T00:11:12.891Z,2.20
2023-03-08T00:13:14.705Z,2.20
2023-03-08T00:15:16.503Z,2.30
2023-03-08T00:17:19.126Z,2.30
2023-03-08T00:19:20.863Z,2.30
2023-03-08T00:21:22.602Z,2.30
2023-03-08T00:23:24.318Z,2.30
2023-03-08T00:25:26.269Z,2.20
2023-03-08T00:27:28.029Z,2.20
2023-03-08T00:29:30.416Z,2.20
2023-03-08T00:31:32.465Z,2.20
2023-03-08T00:33:35.684Z,2.20
2023-03-08T00:35:37.363Z,2.20
2023-03-08T00:37:39.320Z,2.20
2023-03-08T00:39:41.055Z,2.20
2023-03-08T00:41:43.031Z,2.20
2023-03-08T00:43:44.975Z,2.20
2023-03-08T00:45:48.706Z,2.20
2023-03-08T00:47:50.499Z,2.20
2023-03-08T00:49:52.221Z,2.20
2023-03-08T00:51:53.972Z,2.20
2023-03-08T00:53:55.780Z,2.20
2023-03-08T00:55:59.654Z,2.10
2023-03-08T00:58:01.583Z,2.10
2023-03-08T01:00:07.328Z,2.10
2023-03-08T01:02:09.021Z,2.00
2023-03-08T01:04:10.774Z,1.90
2023-03-08T01:06:14.834Z,1.90
2023-03-08T01:08:17.743Z,1.80
2023-03-08T01:10:19.616Z,1.80
2023-03-08T01:12:22.715Z,1.90
2023-03-08T01:14:24.346Z,1.90
2023-03-08T01:16:29.527Z,1.80
2023-03-08T01:18:31.166Z,1.80
2023-03-08T01:20:33.326Z,1.80
2023-03-08T01:22:34.974Z,1.80
2023-03-08T01:24:36.836Z,1.80
2023-03-08T01:26:38.661Z,1.80
2023-03-08T01:28:40.439Z,1.90
2023-03-08T01:30:42.583Z,2.00
2023-03-08T01:32:44.300Z,2.00
2023-03-08T01:34:45.943Z,2.00
2023-03-08T01:36:47.662Z,2.00
2023-03-08T01:38:49.948Z,2.00
2023-03-08T01:40:59.386Z,2.00
2023-03-08T01:43:22.717Z,2.00
2023-03-08T01:46:15.701Z,2.00
2023-03-08T01:48:19.655Z,1.90
2023-03-08T01:50:21.648Z,1.80
2023-03-08T01:52:39.668Z,1.70
2023-03-08T01:54:49.827Z,1.70
2023-03-08T01:56:54.861Z,1.60
2023-03-08T01:58:58.698Z,1.60
2023-03-08T02:01:00.405Z,1.60
2023-03-08T02:03:08.774Z,1.60
2023-03-08T02:05:11.452Z,1.50
2023-03-08T02:07:13.146Z,1.50
2023-03-08T02:09:14.937Z,1.50
2023-03-08T02:11:18.872Z,1.50
2023-03-08T02:13:21.541Z,1.50
2023-03-08T02:15:23.341Z,1.50
2023-03-08T02:17:25.814Z,1.50
2023-03-08T02:19:46.320Z,1.60
2023-03-08T02:21:47.968Z,1.60
2023-03-08T02:23:49.787Z,1.60
2023-03-08T02:25:57.827Z,1.60
2023-03-08T02:27:59.979Z,1.50
2023-03-08T02:30:03.598Z,1.50
2023-03-08T02:32:05.898Z,1.40
2023-03-08T02:34:07.716Z,1.30
2023-03-08T02:36:09.888Z,1.20
2023-03-08T02:38:13.653Z,1.20
2023-03-08T02:40:15.555Z,1.20
2023-03-08T02:42:17.644Z,1.20
2023-03-08T02:44:19.463Z,1.20
2023-03-08T02:46:21.120Z,1.20
2023-03-08T02:48:22.853Z,1.10
2023-03-08T02:50:24.539Z,1.10
2023-03-08T02:52:26.216Z,1.10
2023-03-08T02:54:28.006Z,1.20
2023-03-08T02:56:29.997Z,1.20
2023-03-08T02:58:31.674Z,1.30
2023-03-08T03:00:34.306Z,1.30
2023-03-08T03:02:36.243Z,1.40
2023-03-08T03:04:37.892Z,1.30
2023-03-08T03:06:39.623Z,1.40
2023-03-08T03:08:41.381Z,1.40
2023-03-08T03:10:43.113Z,1.40
2023-03-08T03:12:45.056Z,1.50
2023-03-08T03:14:46.681Z,1.50
2023-03-08T03:16:48.411Z,1.50
2023-03-08T03:18:50.452Z,1.50
2023-03-08T03:20:52.190Z,1.60
2023-03-08T03:22:53.973Z,1.70
2023-03-08T03:24:55.653Z,1.70
2023-03-08T03:26:57.510Z,1.70
2023-03-08T03:28:59.964Z,1.70
2023-03-08T03:31:02.267Z,1.70
2023-03-08T03:33:04.075Z,1.70
2023-03-08T03:35:06.212Z,1.60
2023-03-08T03:37:08.029Z,1.60
2023-03-08T03:39:10.049Z,1.60
2023-03-08T03:41:15.374Z,1.60
2023-03-08T03:43:17.004Z,1.60
2023-03-08T03:45:18.687Z,1.60
2023-03-08T03:47:20.439Z,1.60
2023-03-08T03:49:22.192Z,1.60
2023-03-08T03:51:24.003Z,1.60
2023-03-08T03:53:27.539Z,1.60
2023-03-08T03:55:29.242Z,1.70
2023-03-08T03:57:30.890Z,1.60
2023-03-08T03:59:34.242Z,1.50
2023-03-08T04:01:35.952Z,1.40
2023-03-08T04:03:38.102Z,1.40
2023-03-08T04:05:40.127Z,1.40
2023-03-08T04:07:41.742Z,1.40
2023-03-08T04:09:43.541Z,1.30
2023-03-08T04:11:45.688Z,1.30
2023-03-08T04:13:49.425Z,1.20
2023-03-08T04:15:51.096Z,1.20
2023-03-08T04:17:53.982Z,1.20
2023-03-08T04:19:55.678Z,1.20
2023-03-08T04:21:57.436Z,1.30
2023-03-08T04:24:00.776Z,1.30
2023-03-08T04:26:04.220Z,1.30
2023-03-08T04:28:05.964Z,1.30
2023-03-08T04:30:08.543Z,1.30
2023-03-08T04:32:10.448Z,1.40
2023-03-08T04:34:12.238Z,1.50
2023-03-08T04:36:15.787Z,1.50
2023-03-08T04:38:18.159Z,1.40
2023-03-08T04:40:19.947Z,1.50
2023-03-08T04:42:21.670Z,1.50
2023-03-08T04:44:23.411Z,1.60
2023-03-08T04:46:27.692Z,1.60
2023-03-08T04:48:29.436Z,1.70
2023-03-08T04:50:31.083Z,1.70
2023-03-08T04:52:32.754Z,1.70
2023-03-08T04:54:34.362Z,1.70
2023-03-08T04:56:36.052Z,1.70
2023-03-08T04:58:38.375Z,1.70
2023-03-08T05:00:40.116Z,1.80
2023-03-08T05:02:41.958Z,1.80
2023-03-08T05:04:43.721Z,1.80
2023-03-08T05:06:45.457Z,1.80
2023-03-08T05:08:47.361Z,1.80
2023-03-08T05:11:01.313Z,1.80
2023-03-08T05:13:03.138Z,1.90
2023-03-08T05:15:05.503Z,1.80
2023-03-08T05:17:07.343Z,1.90
2023-03-08T05:19:09.051Z,1.90
2023-03-08T05:21:17.133Z,2.00
2023-03-08T05:23:18.895Z,2.10
2023-03-08T05:25:22.936Z,2.10
2023-03-08T05:27:24.941Z,2.20
2023-03-08T05:29:26.623Z,2.30
2023-03-08T05:31:29.245Z,2.40
2023-03-08T05:33:31.245Z,2.40
2023-03-08T05:35:33.062Z,2.40
2023-03-08T05:37:34.861Z,2.40
2023-03-08T05:39:36.596Z,2.50
2023-03-08T05:41:38.443Z,2.50
2023-03-08T05:43:40.343Z,2.40
2023-03-08T05:45:42.486Z,2.40
2023-03-08T05:47:44.979Z,2.40
2023-03-08T05:49:46.657Z,2.40
2023-03-08T05:51:48.344Z,2.40
2023-03-08T05:53:50.172Z,2.40
2023-03-08T05:55:51.968Z,2.40
2023-03-08T05:57:53.756Z,2.40
2023-03-08T05:59:55.439Z,2.30
2023-03-08T06:01:57.491Z,2.30
2023-03-08T06:03:59.462Z,2.30
2023-03-08T06:06:01.169Z,2.30
2023-03-08T06:08:02.912Z,2.30
2023-03-08T06:10:05.148Z,2.40
2023-03-08T06:12:07.239Z,2.40
2023-03-08T06:14:09.161Z,2.50
2023-03-08T06:16:11.702Z,2.40
2023-03-08T06:18:13.344Z,2.40
2023-03-08T06:20:16.493Z,2.50
2023-03-08T06:22:18.296Z,2.50
2023-03-08T06:24:20.180Z,2.50
2023-03-08T06:26:22.001Z,2.50
2023-03-08T06:28:25.613Z,2.50
2023-03-08T06:30:27.411Z,2.50
2023-03-08T06:32:29.240Z,2.50
2023-03-08T06:34:32.164Z,2.50
2023-03-08T06:36:33.973Z,2.50
2023-03-08T06:38:38.832Z,2.60
2023-03-08T06:40:40.763Z,2.60
2023-03-08T06:42:42.489Z,2.60
2023-03-08T06:44:44.127Z,2.60
2023-03-08T06:46:45.770Z,2.70
2023-03-08T06:48:48.639Z,2.80
2023-03-08T06:50:51.310Z,2.80
2023-03-08T06:52:52.956Z,2.80
2023-03-08T06:54:54.675Z,2.90
2023-03-08T06:56:56.344Z,2.90
2023-03-08T06:58:58.060Z,2.90
2023-03-08T07:00:59.999Z,3.00
2023-03-08T07:03:02.396Z,3.00
2023-03-08T07:05:04.381Z,3.00
2023-03-08T07:07:08.112Z,3.10
2023-03-08T07:09:09.933Z,3.10
2023-03-08T07:11:12.032Z,3.20
2023-03-08T07:13:13.968Z,3.10
2023-03-08T07:15:19.091Z,3.20
2023-03-08T07:17:20.876Z,3.20
2023-03-08T07:19:22.628Z,3.30
2023-03-08T07:21:24.704Z,3.20
2023-03-08T07:23:26.479Z,3.20
2023-03-08T07:25:28.500Z,3.30
2023-03-08T07:27:30.549Z,3.30
2023-03-08T07:29:32.420Z,3.40
2023-03-08T07:31:36.353Z,3.30
2023-03-08T07:33:37.996Z,3.30
2023-03-08T07:35:40.165Z,3.30
2023-03-08T07:37:45.812Z,3.30
2023-03-08T07:39:47.756Z,3.40
2023-03-08T07:41:50.406Z,3.40
2023-03-08T07:43:52.193Z,3.30
2023-03-08T07:45:54.035Z,3.30
2023-03-08T07:47:55.913Z,3.30
2023-03-08T07:49:57.684Z,3.40
2023-03-08T07:52:00.708Z,3.40
2023-03-08T07:54:03.033Z,3.40
2023-03-08T07:56:05.144Z,3.30
2023-03-08T07:58:06.893Z,3.30
2023-03-08T08:00:10.246Z,3.30
2023-03-08T08:02:15.207Z,3.30
2023-03-08T08:04:17.188Z,3.30
2023-03-08T08:06:18.845Z,3.30
2023-03-08T08:08:20.595Z,3.30
2023-03-08T08:10:22.385Z,3.30
2023-03-08T08:12:24.276Z,3.40
2023-03-08T08:14:26.038Z,3.30
2023-03-08T08:16:27.949Z,3.30
2023-03-08T08:18:29.684Z,3.40
2023-03-08T08:20:31.367Z,3.40
2023-03-08T08:22:35.730Z,3.40
2023-03-08T08:24:37.426Z,3.40
2023-03-08T08:26:39.723Z,3.60
2023-03-08T08:28:43.179Z,3.60
2023-03-08T08:30:44.816Z,3.70
2023-03-08T08:32:46.595Z,3.70
2023-03-08T08:34:48.688Z,3.70
2023-03-08T08:36:50.552Z,3.80
2023-03-08T08:38:52.473Z,3.80
2023-03-08T08:40:54.080Z,3.80
2023-03-08T08:42:56.129Z,3.80
2023-03-08T08:44:57.775Z,3.70
2023-03-08T08:46:59.523Z,3.60
2023-03-08T08:49:02.789Z,3.60
2023-03-08T08:51:09.103Z,3.50
2023-03-08T08:53:11.384Z,3.50
2023-03-08T08:55:13.253Z,3.40
2023-03-08T08:57:14.966Z,3.40
2023-03-08T08:59:16.739Z,3.30
2023-03-08T09:01:21.131Z,3.20
2023-03-08T09:03:23.440Z,3.30
2023-03-08T09:05:25.335Z,3.20
2023-03-08T09:07:27.175Z,3.20
2023-03-08T09:09:29.127Z,3.20
2023-03-08T09:11:30.845Z,3.20
2023-03-08T09:13:33.163Z,3.20
2023-03-08T09:15:37.132Z,3.10
2023-03-08T09:17:39.748Z,3.00
2023-03-08T09:19:41.455Z,3.00
2023-03-08T09:21:43.242Z,3.00
2023-03-08T09:23:45.187Z,3.00
2023-03-08T09:25:58.958Z,3.00
2023-03-08T09:28:01.901Z,3.00
2023-03-08T09:30:04.894Z,3.00
2023-03-08T09:32:07.274Z,3.00
2023-03-08T09:34:10.412Z,3.00
2023-03-08T09:36:12.375Z,3.10
2023-03-08T09:38:14.185Z,3.10
2023-03-08T09:40:21.599Z,3.10
2023-03-08T09:42:27.723Z,3.10
2023-03-08T09:44:47.207Z,3.10
2023-03-08T09:46:55.622Z,3.10
2023-03-08T09:49:00.971Z,3.20
2023-03-08T09:51:10.028Z,3.20
2023-03-08T09:53:32.546Z,3.30
2023-03-08T09:55:37.543Z,3.30
2023-03-08T09:57:46.552Z,3.40
2023-03-08T09:59:54.491Z,3.40
2023-03-08T10:02:17.575Z,3.50
2023-03-08T10:04:31.222Z,3.60
2023-03-08T10:06:41.838Z,3.60
2023-03-08T10:08:53.750Z,3.70
2023-03-08T10:11:03.632Z,3.80
2023-03-08T10:13:23.851Z,4.00
2023-03-08T10:15:28.200Z,4.10
2023-03-08T10:17:52.394Z,4.20
2023-03-08T10:20:07.007Z,4.30
2023-03-08T10:22:26.502Z,4.50
2023-03-08T10:24:41.189Z,4.60
2023-03-08T10:26:44.736Z,4.80
2023-03-08T10:28:46.408Z,4.90
2023-03-08T10:31:22.195Z,4.90
2023-03-08T10:33:26.654Z,5.00
2023-03-08T10:35:38.058Z,5.10
2023-03-08T10:37:39.932Z,5.20
2023-03-08T10:39:54.702Z,5.30
2023-03-08T10:41:59.617Z,5.30
2023-03-08T10:44:01.450Z,5.30
2023-03-08T10:46:06.362Z,5.30
2023-03-08T10:48:20.639Z,5.40
2023-03-08T10:50:31.191Z,5.50
2023-03-08T10:52:33.031Z,5.60
2023-03-08T10:54:34.705Z,5.60
2023-03-08T10:56:38.529Z,5.60
2023-03-08T10:58:40.527Z,5.70
2023-03-08T11:00:44.328Z,5.80
2023-03-08T11:02:47.735Z,5.80
2023-03-08T11:05:00.745Z,6.00
2023-03-08T11:07:12.683Z,6.10
2023-03-08T11:09:20.372Z,6.30
2023-03-08T11:11:22.805Z,6.50
2023-03-08T11:13:32.613Z,6.70
2023-03-08T11:15:38.571Z,6.80
2023-03-08T11:17:53.558Z,6.90
2023-03-08T11:20:20.035Z,7.00
2023-03-08T11:22:54.332Z,7.00
2023-03-08T11:25:13.057Z,7.20
2023-03-08T11:27:26.705Z,7.40
2023-03-08T11:29:42.001Z,7.40
2023-03-08T11:32:03.011Z,7.50
2023-03-08T11:34:29.376Z,7.60
2023-03-08T11:36:48.023Z,7.60
2023-03-08T11:38:59.327Z,7.70
2023-03-08T11:41:09.012Z,7.80
2023-03-08T11:43:40.520Z,7.90
2023-03-08T11:46:20.015Z,8.00
2023-03-08T11:48:55.818Z,8.10
2023-03-08T11:51:09.582Z,8.30
2023-03-08T11:53:17.152Z,8.40
2023-03-08T11:55:45.272Z,8.40
2023-03-08T11:58:18.725Z,8.50
2023-03-08T12:00:42.012Z,8.60
2023-03-08T12:02:48.385Z,8.80
2023-03-08T12:04:57.495Z,8.80
2023-03-08T12:07:02.535Z,8.90
2023-03-08T12:09:48.353Z,8.90
2023-03-08T12:11:58.365Z,8.90
2023-03-08T12:14:13.604Z,8.90
2023-03-08T12:16:21.213Z,8.90
2023-03-08T12:18:40.354Z,8.90
2023-03-08T12:20:44.027Z,9.00
2023-03-08T12:23:18.832Z,9.00
2023-03-08T12:25:26.700Z,9.00
2023-03-08T12:27:31.369Z,9.10
2023-03-08T12:29:58.069Z,9.10
2023-03-08T12:32:01.040Z,9.20
2023-03-08T12:34:14.071Z,9.30
2023-03-08T12:36:18.753Z,9.30
2023-03-08T12:38:20.480Z,9.30
2023-03-08T12:40:40.706Z,9.40
2023-03-08T12:42:42.426Z,9.40
2023-03-08T12:44:44.724Z,9.40
2023-03-08T12:47:02.317Z,9.50
2023-03-08T12:49:37.343Z,9.50
2023-03-08T12:51:41.612Z,9.50
2023-03-08T12:53:49.152Z,9.50
2023-03-08T12:56:11.099Z,9.50
2023-03-08T12:58:17.231Z,9.50
2023-03-08T13:00:34.099Z,9.50
2023-03-08T13:02:35.960Z,9.60
2023-03-08T13:04:42.117Z,9.60
2023-03-08T13:06:47.069Z,9.60
2023-03-08T13:09:30.384Z,9.60
2023-03-08T13:11:47.838Z,9.60
2023-03-08T13:13:57.317Z,9.70
2023-03-08T13:16:15.704Z,9.70
2023-03-08T13:18:20.627Z,9.70
2023-03-08T13:21:01.020Z,9.70
2023-03-08T13:23:05.886Z,9.70
2023-03-08T13:25:31.311Z,9.80
2023-03-08T13:27:39.226Z,9.80
2023-03-08T13:29:44.657Z,9.80
2023-03-08T13:31:48.303Z,9.80
2023-03-08T13:34:00.085Z,9.90
2023-03-08T13:36:26.669Z,9.90
2023-03-08T13:38:31.966Z,9.90
2023-03-08T13:40:33.988Z,9.90
2023-03-08T13:42:35.798Z,10.00
2023-03-08T13:44:38.020Z,10.00
2023-03-08T13:46:42.864Z,10.00
2023-03-08T13:48:45.511Z,10.10
2023-03-08T13:50:53.136Z,10.10
2023-03-08T13:52:55.451Z,10.20
2023-03-08T13:55:00.757Z,10.20
2023-03-08T13:57:06.132Z,10.20
2023-03-08T13:59:19.794Z,10.30
2023-03-08T14:01:24.599Z,10.30
2023-03-08T14:03:29.654Z,10.40
2023-03-08T14:05:34.438Z,10.40
2023-03-08T14:07:36.294Z,10.40
2023-03-08T14:09:38.448Z,10.40
2023-03-08T14:11:41.992Z,10.40
2023-03-08T14:13:47.118Z,10.40
2023-03-08T14:15:58.738Z,10.50
2023-03-08T14:18:00.929Z,10.60
2023-03-08T14:20:15.558Z,10.70
2023-03-08T14:22:32.362Z,10.70
2023-03-08T14:24:42.443Z,10.80
2023-03-08T14:26:58.179Z,10.80
2023-03-08T14:29:11.550Z,10.70
2023-03-08T14:31:27.703Z,10.60
2023-03-08T14:33:41.760Z,10.60
2023-03-08T14:35:53.137Z,10.60
2023-03-08T14:37:56.369Z,10.60
2023-03-08T14:40:35.320Z,10.50
2023-03-08T14:42:41.990Z,10.40
2023-03-08T14:44:51.447Z,10.40
2023-03-08T14:46:58.904Z,10.40
2023-03-08T14:49:03.292Z,10.50
2023-03-08T14:51:28.893Z,10.50
2023-03-08T14:53:39.097Z,10.60
2023-03-08T14:55:42.109Z,10.60
2023-03-08T14:57:43.788Z,10.60
2023-03-08T14:59:46.378Z,10.70
2023-03-08T15:01:48.220Z,10.70
2023-03-08T15:03:49.963Z,10.70
2023-03-08T15:05:53.743Z,10.70
2023-03-08T15:07:56.799Z,10.70
2023-03-08T15:10:00.672Z,10.60
2023-03-08T15:12:02.453Z,10.60
2023-03-08T15:14:04.391Z,10.60
2023-03-08T15:16:07.579Z,10.60
2023-03-08T15:18:09.589Z,10.60
2023-03-08T15:20:12.137Z,10.60
2023-03-08T15:22:16.602Z,10.60
2023-03-08T15:24:19.347Z,10.70
2023-03-08T15:26:27.314Z,10.70
2023-03-08T15:28:29.164Z,10.70
2023-03-08T15:30:32.121Z,10.80
2023-03-08T15:32:33.777Z,10.80
2023-03-08T15:34:35.998Z,10.90
2023-03-08T15:36:37.937Z,11.00
2023-03-08T15:38:39.618Z,11.10
2023-03-08T15:40:41.931Z,11.10
2023-03-08T15:42:43.989Z,11.10
2023-03-08T15:44:45.675Z,11.10
2023-03-08T15:46:47.401Z,11.00
2023-03-08T15:48:51.261Z,10.90
2023-03-08T15:50:53.481Z,10.80
2023-03-08T15:52:55.681Z,10.80
2023-03-08T15:54:57.505Z,10.70
2023-03-08T15:56:59.468Z,10.70
2023-03-08T15:59:01.366Z,10.70
2023-03-08T16:01:04.140Z,10.60
2023-03-08T16:03:05.996Z,10.60
2023-03-08T16:05:10.105Z,10.60
2023-03-08T16:07:13.629Z,10.60
2023-03-08T16:09:15.272Z,10.60
2023-03-08T16:11:22.145Z,10.60
2023-03-08T16:13:23.959Z,10.60
2023-03-08T16:15:25.678Z,10.60
2023-03-08T16:17:29.627Z,10.60
2023-03-08T16:19:33.301Z,10.50
2023-03-08T16:21:34.956Z,10.50
2023-03-08T16:23:37.835Z,10.50
2023-03-08T16:25:42.410Z,10.50
2023-03-08T16:27:44.222Z,10.50
2023-03-08T16:29:51.115Z,10.50
2023-03-08T16:31:53.103Z,10.50
2023-03-08T16:33:54.747Z,10.50
2023-03-08T16:35:56.630Z,10.50
2023-03-08T16:37:58.308Z,10.50
2023-03-08T16:40:02.150Z,10.50
2023-03-08T16:42:04.187Z,10.50
2023-03-08T16:44:07.347Z,10.30
2023-03-08T16:46:15.045Z,10.20
2023-03-08T16:48:16.768Z,9.90
2023-03-08T16:50:18.464Z,9.80
2023-03-08T16:52:20.296Z,9.80
2023-03-08T16:54:22.102Z,9.90
2023-03-08T16:56:26.296Z,9.90
2023-03-08T16:58:28.368Z,9.90
2023-03-08T17:00:30.111Z,9.90
2023-03-08T17:02:31.906Z,9.90
2023-03-08T17:04:33.613Z,9.90
2023-03-08T17:06:35.467Z,9.90
2023-03-08T17:08:37.339Z,9.90
2023-03-08T17:10:40.962Z,9.90
2023-03-08T17:12:42.736Z,9.80
2023-03-08T17:14:44.868Z,9.80
2023-03-08T17:16:46.720Z,9.80
2023-03-08T17:18:49.457Z,9.90
2023-03-08T17:20:52.252Z,9.90
2023-03-08T17:22:53.895Z,9.80
2023-03-08T17:24:55.651Z,9.90
2023-03-08T17:26:57.430Z,9.90
2023-03-08T17:28:59.241Z,9.80
2023-03-08T17:31:01.412Z,9.80
2023-03-08T17:33:03.088Z,9.80
2023-03-08T17:35:05.466Z,9.70
2023-03-08T17:37:12.110Z,9.80
2023-03-08T17:39:14.329Z,9.70
2023-03-08T17:41:16.761Z,9.70
2023-03-08T17:43:20.195Z,9.70
2023-03-08T17:45:22.196Z,9.70
2023-03-08T17:47:23.835Z,9.60
2023-03-08T17:49:25.487Z,9.60
2023-03-08T17:51:29.979Z,9.60
2023-03-08T17:53:32.697Z,9.60
2023-03-08T17:55:34.392Z,9.60
2023-03-08T17:57:37.324Z,9.60
2023-03-08T17:59:39.020Z,9.50
2023-03-08T18:01:41.341Z,9.60
2023-03-08T18:03:44.014Z,9.50
2023-03-08T18:05:50.540Z,9.40
2023-03-08T18:07:52.226Z,9.30
2023-03-08T18:09:53.881Z,9.30
2023-03-08T18:11:55.697Z,9.20
2023-03-08T18:13:57.418Z,9.20
2023-03-08T18:15:59.303Z,9.20
2023-03-08T18:18:02.439Z,9.20
2023-03-08T18:20:05.738Z,9.20
2023-03-08T18:22:07.983Z,9.20
2023-03-08T18:24:12.316Z,9.10
2023-03-08T18:26:17.487Z,9.10
2023-03-08T18:28:19.665Z,9.10
2023-03-08T18:30:21.924Z,9.20
2023-03-08T18:32:24.362Z,9.20
2023-03-08T18:34:26.642Z,9.10
2023-03-08T18:36:28.960Z,9.10
2023-03-08T18:38:31.079Z,9.10
2023-03-08T18:40:33.281Z,9.10
2023-03-08T18:42:34.984Z,9.10
2023-03-08T18:44:39.005Z,9.10
2023-03-08T18:46:41.348Z,9.00
2023-03-08T18:48:46.811Z,9.00
2023-03-08T18:50:49.144Z,9.00
2023-03-08T18:52:50.855Z,9.00
2023-03-08T18:54:52.466Z,9.10
2023-03-08T18:56:54.523Z,9.10
2023-03-08T18:58:59.559Z,9.10
2023-03-08T19:01:02.850Z,9.10
2023-03-08T19:03:04.752Z,9.10
2023-03-08T19:05:07.243Z,9.10
2023-03-08T19:07:09.426Z,9.10
2023-03-08T19:09:13.324Z,9.10
2023-03-08T19:11:22.547Z,9.10
2023-03-08T19:13:24.696Z,9.10
2023-03-08T19:15:26.492Z,9.10
2023-03-08T19:17:28.277Z,9.00
2023-03-08T19:19:30.089Z,9.00
2023-03-08T19:21:38.414Z,9.00
2023-03-08T19:23:40.053Z,8.90
2023-03-08T19:26:00.232Z,8.90
2023-03-08T19:28:02.981Z,8.90
2023-03-08T19:30:05.029Z,8.90
2023-03-08T19:32:08.572Z,8.90
2023-03-08T19:34:11.520Z,8.80
2023-03-08T19:36:13.213Z,8.60
2023-03-08T19:38:14.952Z,8.60
2023-03-08T19:40:16.956Z,8.50
2023-03-08T19:42:19.009Z,8.50
2023-03-08T19:44:21.639Z,8.50
2023-03-08T19:46:23.396Z,8.50
2023-03-08T19:48:25.097Z,8.40
2023-03-08T19:50:26.967Z,8.40
2023-03-08T19:52:28.726Z,8.40
2023-03-08T19:54:31.040Z,8.40
2023-03-08T19:56:33.432Z,8.30
2023-03-08T19:58:35.250Z,8.40
2023-03-08T20:00:36.913Z,8.30
2023-03-08T20:02:40.560Z,8.30
2023-03-08T20:04:42.429Z,8.30
2023-03-08T20:06:46.764Z,8.20
2023-03-08T20:08:48.877Z,8.20
2023-03-08T20:10:50.619Z,8.20
2023-03-08T20:12:52.630Z,8.20
2023-03-08T20:14:54.727Z,8.10
2023-03-08T20:16:57.489Z,8.10
2023-03-08T20:18:59.429Z,8.10
2023-03-08T20:21:03.215Z,8.20
2023-03-08T20:23:05.159Z,8.20
2023-03-08T20:25:07.538Z,8.20
2023-03-08T20:27:09.268Z,8.20
2023-03-08T20:29:11.091Z,8.30
2023-03-08T20:31:13.594Z,8.30
2023-03-08T20:33:16.878Z,8.30
2023-03-08T20:35:19.236Z,8.30
2023-03-08T20:37:20.961Z,8.20
2023-03-08T20:39:22.754Z,8.20
2023-03-08T20:41:24.545Z,8.10
2023-03-08T20:43:26.651Z,8.10
2023-03-08T20:45:29.135Z,8.10
2023-03-08T20:47:30.859Z,8.10
2023-03-08T20:49:32.504Z,8.10
2023-03-08T20:51:34.427Z,8.00
2023-03-08T20:53:36.317Z,8.00
2023-03-08T20:55:39.030Z,8.00
2023-03-08T20:57:40.707Z,8.10
2023-03-08T20:59:42.397Z,8.10
2023-03-08T21:01:45.021Z,8.10
2023-03-08T21:03:47.871Z,8.10
2023-03-08T21:05:49.515Z,8.20
2023-03-08T21:07:51.333Z,8.20
2023-03-08T21:09:53.047Z,8.20
2023-03-08T21:11:54.759Z,8.20
2023-03-08T21:13:56.854Z,8.20
2023-03-08T21:16:04.104Z,8.20
2023-03-08T21:18:05.961Z,8.20
2023-03-08T21:20:09.565Z,8.20
2023-03-08T21:22:11.226Z,8.20
2023-03-08T21:24:18.739Z,8.20
2023-03-08T21:26:22.076Z,8.20
2023-03-08T21:28:23.772Z,8.20
2023-03-08T21:30:27.060Z,8.20
2023-03-08T21:32:29.133Z,8.20
2023-03-08T21:34:30.917Z,8.20
2023-03-08T21:36:33.833Z,8.20
2023-03-08T21:38:35.623Z,8.30
2023-03-08T21:40:39.717Z,8.30
2023-03-08T21:42:41.396Z,8.30
2023-03-08T21:44:43.111Z,8.30
2023-03-08T21:46:46.437Z,8.20
2023-03-08T21:48:49.211Z,8.30
2023-03-08T21:50:50.962Z,8.30
2023-03-08T21:52:52.628Z,8.30
2023-03-08T21:54:54.267Z,8.30
2023-03-08T21:56:56.822Z,8.40
2023-03-08T21:58:58.571Z,8.40
2023-03-08T22:01:00.252Z,8.40
2023-03-08T22:03:02.048Z,8.40
2023-03-08T22:05:04.145Z,8.40
2023-03-08T22:07:06.138Z,8.40
2023-03-08T22:09:08.547Z,8.40
2023-03-08T22:11:10.380Z,8.50
2023-03-08T22:13:12.141Z,8.50
2023-03-08T22:15:15.669Z,8.50
2023-03-08T22:17:17.373Z,8.50
2023-03-08T22:19:19.093Z,8.50
2023-03-08T22:21:21.608Z,8.50
2023-03-08T22:23:23.377Z,8.50
2023-03-08T22:25:25.266Z,8.50
2023-03-08T22:27:28.218Z,8.50
2023-03-08T22:29:30.816Z,8.40
2023-03-08T22:31:32.684Z,8.40
2023-03-08T22:33:34.319Z,8.40
2023-03-08T22:35:35.981Z,8.40
2023-03-08T22:37:38.436Z,8.40
2023-03-08T22:39:40.343Z,8.40
2023-03-08T22:41:42.036Z,8.40
2023-03-08T22:43:44.919Z,8.40
2023-03-08T22:45:46.642Z,8.40
2023-03-08T22:47:48.287Z,8.40
2023-03-08T22:49:51.345Z,8.40
2023-03-08T22:51:53.016Z,8.30
2023-03-08T22:53:56.025Z,8.30
2023-03-08T22:55:57.787Z,8.30
2023-03-08T22:57:59.752Z,8.30
2023-03-08T23:00:01.432Z,8.30
2023-03-08T23:02:03.385Z,8.30
2023-03-08T23:04:07.145Z,8.30
2023-03-08T23:06:08.900Z,8.30
2023-03-08T23:08:10.742Z,8.30
2023-03-08T23:10:14.254Z,8.40
2023-03-08T23:12:15.913Z,8.40
2023-03-08T23:14:17.759Z,8.40
2023-03-08T23:16:20.653Z,8.40
2023-03-08T23:18:22.291Z,8.50
2023-03-08T23:20:24.113Z,8.50
2023-03-08T23:22:26.167Z,8.50
2023-03-08T23:24:27.823Z,8.50
2023-03-08T23:26:29.603Z,8.50
2023-03-08T23:28:35.486Z,8.50
2023-03-08T23:30:37.433Z,8.50
2023-03-08T23:32:39.485Z,8.50
2023-03-08T23:34:42.050Z,8.50
2023-03-08T23:36:43.923Z,8.50
2023-03-08T23:38:46.033Z,8.50
2023-03-08T23:40:48.131Z,8.50
2023-03-08T23:42:49.808Z,8.50
2023-03-08T23:44:51.560Z,8.50
2023-03-08T23:46:53.340Z,8.50
2023-03-08T23:48:56.894Z,8.50
2023-03-08T23:50:58.668Z,8.50
2023-03-08T23:53:00.338Z,8.50
2023-03-08T23:55:02.112Z,8.50
2023-03-08T23:57:03.947Z,8.50
2023-03-08T23:59:13.280Z,8.50
